1872 NOT_NAMED (1872071S05088)


IBTrACS version v04r00. Visit IBTrACS website for data access.
Please direct all questions to the IBTrACS Q and A forum

Storm track - Intensity - Wind Radii - Intensity Data - Source Data - All data

Summary Information

Storm ID 1872071S05088
Start Mar 11 06Z
End Mar 18 06Z
ATCF IDs
Track status Best track data.

Storm track plot

Map of storm track

Intensity plots

No Intensity information for this storm


Radial wind information

No radial wind information for this storm


Position and Intensity Table

BASIN ISO_TIME_________ NATURE LAT LON
degrees north degrees east
SI 1872-03-11 06:00:00 NR -4.70 87.50
SI 09:00:00 NR -4.73 87.42
SI 12:00:00 NR -4.76 87.34
SI 15:00:00 NR -4.81 87.22
SI 18:00:00 NR -4.89 87.08
SI 21:00:00 NR -4.99 86.88
SI 1872-03-12 00:00:00 NR -5.14 86.63
SI 03:00:00 NR -5.34 86.31
SI 06:00:00 NR -5.60 85.90
SI 09:00:00 NR -5.92 85.40
SI 12:00:00 NR -6.29 84.83
SI 15:00:00 NR -6.71 84.19
SI 18:00:00 NR -7.17 83.51
SI 21:00:00 NR -7.64 82.80
SI 1872-03-13 00:00:00 NR -8.13 82.09
SI 03:00:00 NR -8.62 81.38
SI 06:00:00 NR -9.10 80.70
SI 09:00:00 NR -9.53 80.09
SI 12:00:00 NR -9.95 79.50
SI 15:00:00 NR -10.38 78.92
SI 18:00:00 NR -10.80 78.36
SI 21:00:00 NR -11.22 77.82
SI 1872-03-14 00:00:00 NR -11.65 77.29
SI 03:00:00 NR -12.07 76.79
SI 06:00:00 NR -12.50 76.30
SI 09:00:00 NR -12.94 75.81
SI 12:00:00 NR -13.37 75.34
SI 15:00:00 NR -13.81 74.88
SI 18:00:00 NR -14.26 74.45
SI 21:00:00 NR -14.70 74.03
SI 1872-03-15 00:00:00 NR -15.13 73.64
SI 03:00:00 NR -15.57 73.26
SI 06:00:00 NR -16.00 72.90
SI 09:00:00 NR -16.40 72.55
SI 12:00:00 NR -16.79 72.22
SI 15:00:00 NR -17.17 71.90
SI 18:00:00 NR -17.57 71.60
SI 21:00:00 NR -17.97 71.32
SI 1872-03-16 00:00:00 NR -18.39 71.04
SI 03:00:00 NR -18.83 70.77
SI 06:00:00 NR -19.30 70.50
SI 09:00:00 NR -19.88 70.19
SI 12:00:00 NR -20.49 69.88
SI 15:00:00 NR -21.12 69.57
SI 18:00:00 NR -21.75 69.27
SI 21:00:00 NR -22.36 68.99
SI 1872-03-17 00:00:00 NR -22.93 68.73
SI 03:00:00 NR -23.45 68.50
SI 06:00:00 NR -23.90 68.30
SI 09:00:00 NR -24.26 68.14
SI 12:00:00 NR -24.54 68.01
SI 15:00:00 NR -24.75 67.91
SI 18:00:00 NR -24.91 67.84
SI 21:00:00 NR -25.02 67.79
SI 1872-03-18 00:00:00 NR -25.10 67.75
SI 03:00:00 NR -25.16 67.72
SI 06:00:00 NR -25.20 67.70

Source Information

Agency Information
USA
TOKYO
CMA
HKO
NEWDELHI
REUNION WMO-Best-Tracks.txt:Line=942:xxxx872138
BOM
NADI
WELLINGTON
DS824
TD9636
TD9635
NEUMANN
MLC

All available IBTrACS Data

SEASON BASIN SUBBASIN ISO_TIME_________ NATURE LAT LON WMO AGENCY DIST2LAND LANDFALL IFLAG USA SSHS REUNION LAT REUNION LON REUNION TYPE REUNION TNUM STORM SPEED STORM DIR
Year degrees north degrees east km km 1 degrees north degrees east 1 kts degrees
1872 SI MM 1872-03-11 06:00:00 NR -4.70 87.50 1233 1233 _____O________ -1 -4.70 87.50 99 9.90 2 251
1872 SI MM 09:00:00 NR -4.73 87.42 1241 1241 _____P________ -1 -4.73 87.42 99 2 250
1872 SI MM 12:00:00 NR -4.76 87.34 1257 1257 _____P________ -1 -4.76 87.34 99 2 247
1872 SI MM 15:00:00 NR -4.81 87.22 1265 1265 _____P________ -1 -4.81 87.22 99 3 244
1872 SI MM 18:00:00 NR -4.89 87.08 1281 1281 _____P________ -1 -4.89 87.08 99 4 242
1872 SI MM 21:00:00 NR -4.99 86.88 1305 1305 _____P________ -1 -4.99 86.88 99 5 240
1872 SI MM 1872-03-12 00:00:00 NR -5.14 86.63 1338 1338 _____P________ -1 -5.14 86.63 99 7 239
1872 SI MM 03:00:00 NR -5.34 86.31 1378 1378 _____P________ -1 -5.34 86.31 99 9 238
1872 SI MM 06:00:00 NR -5.60 85.90 1416 1412 _____O________ -1 -5.60 85.90 99 9.90 11 237
1872 SI MM 09:00:00 NR -5.92 85.40 1425 1425 _____P________ -1 -5.92 85.40 99 13 237
1872 SI MM 12:00:00 NR -6.29 84.83 1444 1444 _____P________ -1 -6.29 84.83 99 14 237
1872 SI MM 15:00:00 NR -6.71 84.19 1467 1467 _____P________ -1 -6.71 84.19 99 16 236
1872 SI MM 18:00:00 NR -7.17 83.51 1502 1500 _____P________ -1 -7.17 83.51 99 17 236
1872 SI MM 21:00:00 NR -7.64 82.80 1532 1532 _____P________ -1 -7.64 82.80 99 17 236
1872 SI MM 1872-03-13 00:00:00 NR -8.13 82.09 1577 1577 _____P________ -1 -8.13 82.09 99 17 235
1872 SI MM 03:00:00 NR -8.62 81.38 1627 1626 _____P________ -1 -8.62 81.38 99 17 235
1872 SI MM 06:00:00 NR -9.10 80.70 1680 1680 _____O________ -1 -9.10 80.70 99 9.90 16 234
1872 SI MM 09:00:00 NR -9.53 80.09 1726 1726 _____P________ -1 -9.53 80.09 99 15 234
1872 SI MM 12:00:00 NR -9.95 79.50 1785 1785 _____P________ -1 -9.95 79.50 99 14 234
1872 SI MM 15:00:00 NR -10.38 78.92 1836 1836 _____P________ -1 -10.38 78.92 99 14 233
1872 SI MM 18:00:00 NR -10.80 78.36 1887 1887 _____P________ -1 -10.80 78.36 99 14 232
1872 SI MM 21:00:00 NR -11.22 77.82 1940 1940 _____P________ -1 -11.22 77.82 99 14 231
1872 SI MM 1872-03-14 00:00:00 NR -11.65 77.29 1994 1994 _____P________ -1 -11.65 77.29 99 13 230
1872 SI MM 03:00:00 NR -12.07 76.79 2060 2060 _____P________ -1 -12.07 76.79 99 13 229
1872 SI MM 06:00:00 NR -12.50 76.30 reunion 2115 2087 _____O________ -1 -12.50 76.30 99 9.90 13 228
1872 SI MM 09:00:00 NR -12.94 75.81 2087 2024 _____P________ -1 -12.94 75.81 99 13 227
1872 SI MM 12:00:00 NR -13.37 75.34 2014 1956 _____P________ -1 -13.37 75.34 99 13 226
1872 SI MM 15:00:00 NR -13.81 74.88 1956 1899 _____P________ -1 -13.81 74.88 99 12 224
1872 SI MM 18:00:00 NR -14.26 74.45 1884 1837 _____P________ -1 -14.26 74.45 99 12 223
1872 SI MM 21:00:00 NR -14.70 74.03 1827 1781 _____P________ -1 -14.70 74.03 99 12 222
1872 SI MM 1872-03-15 00:00:00 NR -15.13 73.64 1771 1724 _____P________ -1 -15.13 73.64 99 12 221
1872 SI MM 03:00:00 NR -15.57 73.26 1721 1665 _____P________ -1 -15.57 73.26 99 11 219
1872 SI MM 06:00:00 NR -16.00 72.90 reunion 1665 1621 _____O________ -1 -16.00 72.90 99 9.90 11 220
1872 SI MM 09:00:00 NR -16.40 72.55 1611 1567 _____P________ -1 -16.40 72.55 99 10 220
1872 SI MM 12:00:00 NR -16.79 72.22 1567 1524 _____P________ -1 -16.79 72.22 99 10 219
1872 SI MM 15:00:00 NR -17.17 71.90 1524 1484 _____P________ -1 -17.17 71.90 99 10 217
1872 SI MM 18:00:00 NR -17.57 71.60 1481 1443 _____P________ -1 -17.57 71.60 99 10 215
1872 SI MM 21:00:00 NR -17.97 71.32 1440 1411 _____P________ -1 -17.97 71.32 99 10 213
1872 SI MM 1872-03-16 00:00:00 NR -18.39 71.04 1400 1372 _____P________ -1 -18.39 71.04 99 10 211
1872 SI MM 03:00:00 NR -18.83 70.77 1372 1332 _____P________ -1 -18.83 70.77 99 11 209
1872 SI MM 06:00:00 NR -19.30 70.50 reunion 1332 1296 _____O________ -1 -19.30 70.50 99 9.90 12 208
1872 SI MM 09:00:00 NR -19.88 70.19 1295 1260 _____P________ -1 -19.88 70.19 99 13 206
1872 SI MM 12:00:00 NR -20.49 69.88 1260 1229 _____P________ -1 -20.49 69.88 99 14 205
1872 SI MM 15:00:00 NR -21.12 69.57 1230 1202 _____P________ -1 -21.12 69.57 99 14 204
1872 SI MM 18:00:00 NR -21.75 69.27 1204 1181 _____P________ -1 -21.75 69.27 99 14 203
1872 SI MM 21:00:00 NR -22.36 68.99 1182 1163 _____P________ -1 -22.36 68.99 99 13 203
1872 SI MM 1872-03-17 00:00:00 NR -22.93 68.73 1163 1153 _____P________ -1 -22.93 68.73 99 12 203
1872 SI MM 03:00:00 NR -23.45 68.50 1159 1149 _____P________ -1 -23.45 68.50 99 10 202
1872 SI MM 06:00:00 NR -23.90 68.30 reunion 1153 1145 _____O________ -1 -23.90 68.30 99 9.90 9 202
1872 SI MM 09:00:00 NR -24.26 68.14 1149 1147 _____P________ -1 -24.26 68.14 99 7 203
1872 SI MM 12:00:00 NR -24.54 68.01 1147 1146 _____P________ -1 -24.54 68.01 99 5 203
1872 SI MM 15:00:00 NR -24.75 67.91 1150 1145 _____P________ -1 -24.75 67.91 99 4 202
1872 SI MM 18:00:00 NR -24.91 67.84 1145 1145 _____P________ -1 -24.91 67.84 99 3 203
1872 SI MM 21:00:00 NR -25.02 67.79 1150 1150 _____P________ -1 -25.02 67.79 99 2 203
1872 SI MM 1872-03-18 00:00:00 NR -25.10 67.75 1145 1145 _____P________ -1 -25.10 67.75 99 1 201
1872 SI MM 03:00:00 NR -25.16 67.72 1150 1150 _____P________ -1 -25.16 67.72 99 1 198
1872 SI MM 06:00:00 NR -25.20 67.70 reunion 1150 _____O________ -1 -25.20 67.70 99 9.90 1 0